createdAt,value
2023-05-26T00:00:25.642Z,25.00
2023-05-26T00:01:26.681Z,25.01
2023-05-26T00:02:26.779Z,25.01
2023-05-26T00:03:25.872Z,25.00
2023-05-26T00:04:26.828Z,24.99
2023-05-26T00:05:26.821Z,24.99
2023-05-26T00:06:26.873Z,24.99
2023-05-26T00:07:26.868Z,24.99
2023-05-26T00:08:26.897Z,24.98
2023-05-26T00:09:26.961Z,24.98
2023-05-26T00:10:25.974Z,24.97
2023-05-26T00:11:27.018Z,24.98
2023-05-26T00:12:27.057Z,24.98
2023-05-26T00:13:27.109Z,24.98
2023-05-26T00:14:27.126Z,24.97
2023-05-26T00:15:27.157Z,24.96
2023-05-26T00:16:27.275Z,24.95
2023-05-26T00:17:27.245Z,24.95
2023-05-26T00:18:27.276Z,24.95
2023-05-26T00:19:27.304Z,24.95
2023-05-26T00:20:26.424Z,24.95
2023-05-26T00:21:26.388Z,24.95
2023-05-26T00:22:26.418Z,24.95
2023-05-26T00:23:27.452Z,24.95
2023-05-26T00:24:27.491Z,24.94
2023-05-26T00:25:26.516Z,24.94
2023-05-26T00:26:27.569Z,24.93
2023-05-26T00:27:27.593Z,24.93
2023-05-26T00:28:26.634Z,24.92
2023-05-26T00:29:29.533Z,24.92
2023-05-26T00:30:27.652Z,24.92
2023-05-26T00:31:26.696Z,24.92
2023-05-26T00:32:26.697Z,24.93
2023-05-26T00:33:27.643Z,24.93
2023-05-26T00:34:27.641Z,24.92
2023-05-26T00:35:27.636Z,24.92
2023-05-26T00:36:27.617Z,24.92
2023-05-26T00:37:27.605Z,24.92
2023-05-26T00:38:27.600Z,24.92
2023-05-26T00:39:27.612Z,24.91
2023-05-26T00:40:27.628Z,24.91
2023-05-26T00:41:27.604Z,24.91
2023-05-26T00:42:27.580Z,24.91
2023-05-26T00:43:27.585Z,24.91
2023-05-26T00:44:26.585Z,24.90
2023-05-26T00:45:27.596Z,24.90
2023-05-26T00:46:27.624Z,24.90
2023-05-26T00:47:27.590Z,24.89
2023-05-26T00:48:27.563Z,24.89
2023-05-26T00:49:27.528Z,24.88
2023-05-26T00:50:26.515Z,24.88
2023-05-26T00:51:26.523Z,24.88
2023-05-26T00:52:27.521Z,24.88
2023-05-26T00:53:27.503Z,24.88
2023-05-26T00:54:27.494Z,24.87
2023-05-26T00:55:27.515Z,24.87
2023-05-26T00:56:26.486Z,24.86
2023-05-26T00:57:27.477Z,24.86
2023-05-26T00:58:27.474Z,24.87
2023-05-26T00:59:27.470Z,24.86
2023-05-26T01:00:26.450Z,24.86
2023-05-26T01:01:27.570Z,24.85
2023-05-26T01:02:27.477Z,24.85
2023-05-26T01:03:26.491Z,24.84
2023-05-26T01:04:26.459Z,24.84
2023-05-26T01:05:26.517Z,24.83
2023-05-26T01:06:27.568Z,24.84
2023-05-26T01:07:27.599Z,24.84
2023-05-26T01:08:26.634Z,24.84
2023-05-26T01:09:27.682Z,24.83
2023-05-26T01:10:26.711Z,24.83
2023-05-26T01:11:27.874Z,24.83
2023-05-26T01:12:27.825Z,24.83
2023-05-26T01:13:26.866Z,24.82
2023-05-26T01:14:27.912Z,24.82
2023-05-26T01:15:27.960Z,24.82
2023-05-26T01:16:28.041Z,24.82
2023-05-26T01:17:27.069Z,24.82
2023-05-26T01:18:28.078Z,24.82
2023-05-26T01:19:27.117Z,24.82
2023-05-26T01:20:28.203Z,24.81
2023-05-26T01:21:27.213Z,24.80
2023-05-26T01:22:28.269Z,24.80
2023-05-26T01:23:27.304Z,24.81
2023-05-26T01:24:27.362Z,24.80
2023-05-26T01:25:28.408Z,24.80
2023-05-26T01:26:28.466Z,24.79
2023-05-26T01:27:27.515Z,24.79
2023-05-26T01:28:27.540Z,24.79
2023-05-26T01:29:28.605Z,24.79
2023-05-26T01:30:28.657Z,24.79
2023-05-26T01:31:27.673Z,24.79
2023-05-26T01:32:28.747Z,24.79
2023-05-26T01:33:29.028Z,24.79
2023-05-26T01:34:28.815Z,24.78
2023-05-26T01:35:27.834Z,24.78
2023-05-26T01:36:27.895Z,24.77
2023-05-26T01:37:27.948Z,24.77
2023-05-26T01:38:28.997Z,24.76
2023-05-26T01:39:29.040Z,24.77
2023-05-26T01:40:29.069Z,24.77
2023-05-26T01:41:29.164Z,24.76
2023-05-26T01:42:31.979Z,24.77
2023-05-26T01:43:28.159Z,24.77
2023-05-26T01:44:29.172Z,24.76
2023-05-26T01:45:29.153Z,24.76
2023-05-26T01:46:29.243Z,24.76
2023-05-26T01:47:29.157Z,24.75
2023-05-26T01:48:28.140Z,24.75
2023-05-26T01:49:29.149Z,24.75
2023-05-26T01:50:28.120Z,24.75
2023-05-26T01:51:29.130Z,24.74
2023-05-26T01:52:28.115Z,24.74
2023-05-26T01:53:28.119Z,24.74
2023-05-26T01:54:29.109Z,24.73
2023-05-26T01:55:29.092Z,24.74
2023-05-26T01:56:29.079Z,24.73
2023-05-26T01:57:29.090Z,24.73
2023-05-26T01:58:28.079Z,24.72
2023-05-26T01:59:28.055Z,24.73
2023-05-26T02:00:28.057Z,24.73
2023-05-26T02:01:29.101Z,24.72
2023-05-26T02:02:29.147Z,24.73
2023-05-26T02:03:28.151Z,24.72
2023-05-26T02:04:29.029Z,24.71
2023-05-26T02:05:28.051Z,24.71
2023-05-26T02:06:29.024Z,24.71
2023-05-26T02:07:29.027Z,24.72
2023-05-26T02:08:29.007Z,24.72
2023-05-26T02:09:28.984Z,24.71
2023-05-26T02:10:29.039Z,24.71
2023-05-26T02:11:28.072Z,24.70
2023-05-26T02:12:29.128Z,24.70
2023-05-26T02:13:29.180Z,24.70
2023-05-26T02:14:28.224Z,24.70
2023-05-26T02:15:29.294Z,24.70
2023-05-26T02:16:28.378Z,24.70
2023-05-26T02:17:28.428Z,24.69
2023-05-26T02:18:29.460Z,24.68
2023-05-26T02:19:28.510Z,24.68
2023-05-26T02:20:29.606Z,24.68
2023-05-26T02:21:29.624Z,24.68
2023-05-26T02:22:28.666Z,24.68
2023-05-26T02:23:28.709Z,24.67
2023-05-26T02:24:29.756Z,24.67
2023-05-26T02:25:28.801Z,24.68
2023-05-26T02:26:28.825Z,24.67
2023-05-26T02:27:28.896Z,24.67
2023-05-26T02:28:29.915Z,24.66
2023-05-26T02:29:29.964Z,24.66
2023-05-26T02:30:30.021Z,24.65
2023-05-26T02:31:30.504Z,24.65
2023-05-26T02:32:29.106Z,24.66
2023-05-26T02:33:29.045Z,24.64
2023-05-26T02:34:29.064Z,24.65
2023-05-26T02:35:30.038Z,24.64
2023-05-26T02:36:30.038Z,24.66
2023-05-26T02:37:30.040Z,24.64
2023-05-26T02:38:30.011Z,24.65
2023-05-26T02:39:29.003Z,24.64
2023-05-26T02:40:28.999Z,24.64
2023-05-26T02:41:29.993Z,24.64
2023-05-26T02:42:28.991Z,24.63
2023-05-26T02:43:29.999Z,24.61
2023-05-26T02:44:29.962Z,24.62
2023-05-26T02:45:29.973Z,24.61
2023-05-26T02:46:29.962Z,24.60
2023-05-26T02:47:30.006Z,24.61
2023-05-26T02:48:29.952Z,24.60
2023-05-26T02:49:29.938Z,24.59
2023-05-26T02:50:28.938Z,24.60
2023-05-26T02:51:28.932Z,24.60
2023-05-26T02:52:29.940Z,24.59
2023-05-26T02:53:29.935Z,24.59
2023-05-26T02:54:28.931Z,24.59
2023-05-26T02:55:28.903Z,24.58
2023-05-26T02:56:28.904Z,24.59
2023-05-26T02:57:31.421Z,24.59
2023-05-26T02:58:30.052Z,24.58
2023-05-26T02:59:30.114Z,24.59
2023-05-26T03:00:29.136Z,24.58
2023-05-26T03:01:30.256Z,24.58
2023-05-26T03:02:29.281Z,24.57
2023-05-26T03:03:29.398Z,24.57
2023-05-26T03:04:29.374Z,24.57
2023-05-26T03:05:30.407Z,24.57
2023-05-26T03:06:30.461Z,24.57
2023-05-26T03:07:29.564Z,24.57
2023-05-26T03:08:29.565Z,24.56
2023-05-26T03:09:30.656Z,24.56
2023-05-26T03:10:30.668Z,24.55
2023-05-26T03:11:29.699Z,24.56
2023-05-26T03:12:30.775Z,24.55
2023-05-26T03:13:30.802Z,24.55
2023-05-26T03:14:30.839Z,24.55
2023-05-26T03:15:29.902Z,24.55
2023-05-26T03:16:31.006Z,24.54
2023-05-26T03:17:30.042Z,24.54
2023-05-26T03:18:30.002Z,24.53
2023-05-26T03:19:31.055Z,24.53
2023-05-26T03:20:31.186Z,24.53
2023-05-26T03:21:46.534Z,24.53
2023-05-26T03:22:39.845Z,24.53
2023-05-26T03:23:31.148Z,24.52
2023-05-26T03:24:31.155Z,24.52
2023-05-26T03:25:30.167Z,24.52
2023-05-26T03:26:31.134Z,24.51
2023-05-26T03:27:31.121Z,24.52
2023-05-26T03:28:31.123Z,24.53
2023-05-26T03:29:31.101Z,24.52
2023-05-26T03:30:31.122Z,24.51
2023-05-26T03:31:31.138Z,24.51
2023-05-26T03:32:30.134Z,24.51
2023-05-26T03:33:31.092Z,24.50
2023-05-26T03:34:31.075Z,24.50
2023-05-26T03:35:31.062Z,24.50
2023-05-26T03:36:30.083Z,24.50
2023-05-26T03:37:30.174Z,24.50
2023-05-26T03:38:30.069Z,24.50
2023-05-26T03:39:31.036Z,24.50
2023-05-26T03:40:31.040Z,24.50
2023-05-26T03:41:31.077Z,24.50
2023-05-26T03:42:31.026Z,24.49
2023-05-26T03:43:31.015Z,24.49
2023-05-26T03:44:31.038Z,24.49
2023-05-26T03:45:31.015Z,24.49
2023-05-26T03:46:31.027Z,24.48
2023-05-26T03:47:30.995Z,24.49
2023-05-26T03:48:30.978Z,24.49
2023-05-26T03:49:30.979Z,24.48
2023-05-26T03:50:30.969Z,24.48
2023-05-26T03:51:30.969Z,24.48
2023-05-26T03:52:29.971Z,24.47
2023-05-26T03:53:29.988Z,24.46
2023-05-26T03:54:31.014Z,24.47
2023-05-26T03:55:31.045Z,24.47
2023-05-26T03:56:31.134Z,24.46
2023-05-26T03:57:31.169Z,24.46
2023-05-26T03:58:30.189Z,24.47
2023-05-26T03:59:30.215Z,24.47
2023-05-26T04:00:31.259Z,24.46
2023-05-26T04:01:30.291Z,24.46
2023-05-26T04:02:31.429Z,24.46
2023-05-26T04:03:31.385Z,24.45
2023-05-26T04:04:31.471Z,24.46
2023-05-26T04:05:31.487Z,24.45
2023-05-26T04:06:31.508Z,24.45
2023-05-26T04:07:31.571Z,24.44
2023-05-26T04:08:30.580Z,24.44
2023-05-26T04:09:30.615Z,24.44
2023-05-26T04:10:31.645Z,24.44
2023-05-26T04:11:31.680Z,24.43
2023-05-26T04:12:30.692Z,24.43
2023-05-26T04:13:30.787Z,24.43
2023-05-26T04:14:31.769Z,24.42
2023-05-26T04:15:31.824Z,24.42
2023-05-26T04:16:31.950Z,24.42
2023-05-26T04:17:30.900Z,24.42
2023-05-26T04:18:31.925Z,24.42
2023-05-26T04:19:30.972Z,24.42
2023-05-26T04:20:32.062Z,24.42
2023-05-26T04:21:32.039Z,24.42
2023-05-26T04:22:31.079Z,24.42
2023-05-26T04:23:32.136Z,24.41
2023-05-26T04:24:32.166Z,24.41
2023-05-26T04:25:32.190Z,24.41
2023-05-26T04:26:32.229Z,24.40
2023-05-26T04:27:32.248Z,24.41
2023-05-26T04:28:32.335Z,24.40
2023-05-26T04:29:32.364Z,24.41
2023-05-26T04:30:32.399Z,24.39
2023-05-26T04:31:32.468Z,24.40
2023-05-26T04:32:31.488Z,24.39
2023-05-26T04:33:32.512Z,24.40
2023-05-26T04:34:32.541Z,24.39
2023-05-26T04:35:31.587Z,24.39
2023-05-26T04:36:32.604Z,24.39
2023-05-26T04:37:32.672Z,24.39
2023-05-26T04:38:32.711Z,24.38
2023-05-26T04:39:32.767Z,24.37
2023-05-26T04:40:32.800Z,24.37
2023-05-26T04:41:32.855Z,24.38
2023-05-26T04:42:31.849Z,24.38
2023-05-26T04:43:32.906Z,24.38
2023-05-26T04:44:32.956Z,24.38
2023-05-26T04:45:32.972Z,24.38
2023-05-26T04:46:33.069Z,24.37
2023-05-26T04:47:33.084Z,24.37
2023-05-26T04:48:33.118Z,24.36
2023-05-26T04:49:32.147Z,24.36
2023-05-26T04:50:32.173Z,24.37
2023-05-26T04:51:33.202Z,24.36
2023-05-26T04:52:32.217Z,24.36
2023-05-26T04:53:32.278Z,24.36
2023-05-26T04:54:33.298Z,24.36
2023-05-26T04:55:32.348Z,24.36
2023-05-26T04:56:32.343Z,24.36
2023-05-26T04:57:32.378Z,24.35
2023-05-26T04:58:33.522Z,24.13
2023-05-26T04:59:33.473Z,23.90
2023-05-26T05:00:32.528Z,23.75
2023-05-26T05:01:33.594Z,23.63
2023-05-26T05:02:33.558Z,23.46
2023-05-26T05:03:33.247Z,23.21
2023-05-26T05:04:33.602Z,22.97
2023-05-26T05:05:32.951Z,22.84
2023-05-26T05:06:33.966Z,22.75
2023-05-26T05:07:33.698Z,22.64
2023-05-26T05:08:32.972Z,22.57
2023-05-26T05:09:33.783Z,22.49
2023-05-26T05:10:33.817Z,22.43
2023-05-26T05:11:32.823Z,22.37
2023-05-26T05:12:32.851Z,22.33
2023-05-26T05:13:33.919Z,22.33
2023-05-26T05:14:32.921Z,22.34
2023-05-26T05:15:33.962Z,22.34
2023-05-26T05:16:33.019Z,22.27
2023-05-26T05:17:34.014Z,22.15
2023-05-26T05:18:34.022Z,22.07
2023-05-26T05:19:33.029Z,22.09
2023-05-26T05:20:34.084Z,22.07
2023-05-26T05:21:34.038Z,22.05
2023-05-26T05:22:33.052Z,22.00
2023-05-26T05:23:33.081Z,22.01
2023-05-26T05:24:33.096Z,21.97
2023-05-26T05:25:33.097Z,22.03
2023-05-26T05:26:34.133Z,22.09
2023-05-26T05:27:33.259Z,22.04
2023-05-26T05:28:34.192Z,22.10
2023-05-26T05:29:33.206Z,22.13
2023-05-26T05:30:34.226Z,22.16
2023-05-26T05:31:34.225Z,22.16
2023-05-26T05:32:34.286Z,22.12
2023-05-26T05:33:34.341Z,22.17
2023-05-26T05:34:34.274Z,22.18
2023-05-26T05:35:33.357Z,22.22
2023-05-26T05:36:33.288Z,22.19
2023-05-26T05:37:34.313Z,22.21
2023-05-26T05:38:33.318Z,22.25
2023-05-26T05:39:33.329Z,22.27
2023-05-26T05:40:34.366Z,22.35
2023-05-26T05:41:33.406Z,22.40
2023-05-26T05:42:34.473Z,22.47
2023-05-26T05:43:34.499Z,22.49
2023-05-26T05:44:33.537Z,22.49
2023-05-26T05:45:34.579Z,22.53
2023-05-26T05:46:33.672Z,22.60
2023-05-26T05:47:33.711Z,22.87
2023-05-26T05:48:34.734Z,23.11
2023-05-26T05:49:34.771Z,23.14
2023-05-26T05:50:33.815Z,23.09
2023-05-26T05:51:34.883Z,22.95
2023-05-26T05:52:34.907Z,22.89
2023-05-26T05:53:35.001Z,22.82
2023-05-26T05:54:34.996Z,22.54
2023-05-26T05:55:35.006Z,22.23
2023-05-26T05:56:34.048Z,22.00
2023-05-26T05:57:35.034Z,21.81
2023-05-26T05:58:35.045Z,21.76
2023-05-26T05:59:34.112Z,21.69
2023-05-26T06:00:34.134Z,21.70
2023-05-26T06:01:35.182Z,21.76
2023-05-26T06:02:34.322Z,21.76
2023-05-26T06:03:34.476Z,21.76
2023-05-26T06:04:35.417Z,21.94
2023-05-26T06:05:34.357Z,22.15
2023-05-26T06:06:34.493Z,22.35
2023-05-26T06:07:35.429Z,22.55
2023-05-26T06:08:35.446Z,22.73
2023-05-26T06:09:35.513Z,22.89
2023-05-26T06:10:35.523Z,23.01
2023-05-26T06:11:34.543Z,23.06
2023-05-26T06:12:35.552Z,23.10
2023-05-26T06:13:35.605Z,23.22
2023-05-26T06:14:35.654Z,23.35
2023-05-26T06:15:35.668Z,23.46
2023-05-26T06:16:35.809Z,23.54
2023-05-26T06:17:35.856Z,23.57
2023-05-26T06:18:35.931Z,23.59
2023-05-26T06:19:34.840Z,23.59
2023-05-26T06:20:35.943Z,23.62
2023-05-26T06:21:34.945Z,23.64
2023-05-26T06:22:35.991Z,23.70
2023-05-26T06:23:36.428Z,23.77
2023-05-26T06:24:36.055Z,23.76
2023-05-26T06:25:36.086Z,23.78
2023-05-26T06:26:36.128Z,23.77
2023-05-26T06:27:36.156Z,23.80
2023-05-26T06:28:35.234Z,23.81
2023-05-26T06:29:35.234Z,23.80
2023-05-26T06:30:36.270Z,23.78
2023-05-26T06:31:35.380Z,23.76
2023-05-26T06:32:35.432Z,23.78
2023-05-26T06:33:35.386Z,23.81
2023-05-26T06:34:35.440Z,23.87
2023-05-26T06:35:36.454Z,23.97
2023-05-26T06:36:35.501Z,24.08
2023-05-26T06:37:36.505Z,24.19
2023-05-26T06:38:36.544Z,24.28
2023-05-26T06:39:35.553Z,24.37
2023-05-26T06:40:36.613Z,24.46
2023-05-26T06:41:35.655Z,24.54
2023-05-26T06:42:36.700Z,24.63
2023-05-26T06:43:35.755Z,24.72
2023-05-26T06:44:35.767Z,24.80
2023-05-26T06:45:36.775Z,24.91
2023-05-26T06:46:36.812Z,25.01
2023-05-26T06:47:36.906Z,25.06
2023-05-26T06:48:35.866Z,25.12
2023-05-26T06:49:37.387Z,25.17
2023-05-26T06:50:36.909Z,25.18
2023-05-26T06:51:35.900Z,25.24
2023-05-26T06:52:36.982Z,25.25
2023-05-26T06:53:36.965Z,25.01
2023-05-26T06:54:36.984Z,24.83
2023-05-26T06:55:37.017Z,24.71
2023-05-26T06:56:37.030Z,24.64
2023-05-26T06:57:37.051Z,24.64
2023-05-26T06:58:37.052Z,24.69
2023-05-26T06:59:37.091Z,24.72
2023-05-26T07:00:36.176Z,24.75
2023-05-26T07:01:37.228Z,24.75
2023-05-26T07:02:37.265Z,24.73
2023-05-26T07:03:37.260Z,24.71
2023-05-26T07:04:37.330Z,24.75
2023-05-26T07:05:38.065Z,24.83
2023-05-26T07:06:46.571Z,24.87
2023-05-26T07:07:37.454Z,24.84
2023-05-26T07:08:37.424Z,24.84
2023-05-26T07:09:36.430Z,24.83
2023-05-26T07:10:37.398Z,24.81
2023-05-26T07:11:36.377Z,24.80
2023-05-26T07:12:36.397Z,24.79
2023-05-26T07:13:36.381Z,24.80
2023-05-26T07:14:38.582Z,24.79
2023-05-26T07:15:36.390Z,24.78
2023-05-26T07:16:37.520Z,24.77
2023-05-26T07:17:36.466Z,24.74
2023-05-26T07:18:37.520Z,24.71
2023-05-26T07:19:37.525Z,24.69
2023-05-26T07:20:36.684Z,24.68
2023-05-26T07:21:36.634Z,24.68
2023-05-26T07:22:36.689Z,24.69
2023-05-26T07:23:36.713Z,24.70
2023-05-26T07:24:37.780Z,24.74
2023-05-26T07:25:37.816Z,24.79
2023-05-26T07:26:37.877Z,24.88
2023-05-26T07:27:36.948Z,24.90
2023-05-26T07:28:37.976Z,24.89
2023-05-26T07:29:38.012Z,24.91
2023-05-26T07:30:38.072Z,24.93
2023-05-26T07:31:38.170Z,25.00
2023-05-26T07:32:38.213Z,25.05
2023-05-26T07:33:38.303Z,25.12
2023-05-26T07:34:38.261Z,25.18
2023-05-26T07:35:38.260Z,25.22
2023-05-26T07:36:38.259Z,25.26
2023-05-26T07:37:38.263Z,25.31
2023-05-26T07:38:38.327Z,25.32
2023-05-26T07:39:37.298Z,25.34
2023-05-26T07:40:38.303Z,25.36
2023-05-26T07:41:37.319Z,25.38
2023-05-26T07:42:37.332Z,25.39
2023-05-26T07:43:38.361Z,25.41
2023-05-26T07:44:37.354Z,25.37
2023-05-26T07:45:38.436Z,25.39
2023-05-26T07:46:38.531Z,25.35
2023-05-26T07:47:38.457Z,25.37
2023-05-26T07:48:38.440Z,25.36
2023-05-26T07:49:37.927Z,25.36
2023-05-26T07:50:37.534Z,25.34
2023-05-26T07:51:38.560Z,25.34
2023-05-26T07:52:38.593Z,25.37
2023-05-26T07:53:37.590Z,25.41
2023-05-26T07:54:37.945Z,25.48
2023-05-26T07:55:37.601Z,25.53
2023-05-26T07:56:38.621Z,25.59
2023-05-26T07:57:37.651Z,25.65
2023-05-26T07:58:38.707Z,25.64
2023-05-26T07:59:37.710Z,25.67
2023-05-26T08:00:38.770Z,25.74
2023-05-26T08:01:37.749Z,25.77
2023-05-26T08:02:38.902Z,25.82
2023-05-26T08:03:38.900Z,25.86
2023-05-26T08:04:37.841Z,25.87
2023-05-26T08:05:38.984Z,25.89
2023-05-26T08:06:38.007Z,25.84
2023-05-26T08:07:37.983Z,25.76
2023-05-26T08:08:39.021Z,25.82
2023-05-26T08:09:38.087Z,25.87
2023-05-26T08:10:38.154Z,25.92
2023-05-26T08:11:39.112Z,25.97
2023-05-26T08:12:38.119Z,25.94
2023-05-26T08:13:39.178Z,25.92
2023-05-26T08:14:39.283Z,25.99
2023-05-26T08:15:39.314Z,26.06
2023-05-26T08:16:39.456Z,26.11
2023-05-26T08:17:39.397Z,26.15
2023-05-26T08:18:39.404Z,26.19
2023-05-26T08:19:38.464Z,26.22
2023-05-26T08:20:39.559Z,26.23
2023-05-26T08:21:39.522Z,26.27
2023-05-26T08:22:39.560Z,26.31
2023-05-26T08:23:39.605Z,26.33
2023-05-26T08:24:39.636Z,26.35
2023-05-26T08:25:39.695Z,26.37
2023-05-26T08:26:39.714Z,26.41
2023-05-26T08:27:39.730Z,26.44
2023-05-26T08:28:39.773Z,26.47
2023-05-26T08:29:39.781Z,26.49
2023-05-26T08:30:39.798Z,26.52
2023-05-26T08:31:39.867Z,26.54
2023-05-26T08:32:39.009Z,26.57
2023-05-26T08:33:38.835Z,26.61
2023-05-26T08:34:39.862Z,26.61
2023-05-26T08:35:39.859Z,26.62
2023-05-26T08:36:39.883Z,26.64
2023-05-26T08:37:38.896Z,26.67
2023-05-26T08:38:39.908Z,26.70
2023-05-26T08:39:39.933Z,26.71
2023-05-26T08:40:39.927Z,26.66
2023-05-26T08:41:39.132Z,26.63
2023-05-26T08:42:38.973Z,26.60
2023-05-26T08:43:46.517Z,26.59
2023-05-26T08:44:40.470Z,26.57
2023-05-26T08:45:39.972Z,26.56
2023-05-26T08:46:39.966Z,26.58
2023-05-26T08:47:39.042Z,26.60
2023-05-26T08:48:39.937Z,26.59
2023-05-26T08:49:39.972Z,26.47
2023-05-26T08:50:38.933Z,26.27
2023-05-26T08:51:39.942Z,26.10
2023-05-26T08:52:38.920Z,25.98
2023-05-26T08:53:38.897Z,25.94
2023-05-26T08:54:39.933Z,25.94
2023-05-26T08:55:39.940Z,25.94
2023-05-26T08:56:39.914Z,25.92
2023-05-26T08:57:39.927Z,25.88
2023-05-26T08:58:38.889Z,25.84
2023-05-26T08:59:38.946Z,25.80
2023-05-26T09:00:38.863Z,25.75
2023-05-26T09:01:39.980Z,25.80
2023-05-26T09:02:39.885Z,25.86
2023-05-26T09:03:39.879Z,26.03
2023-05-26T09:04:38.843Z,26.18
2023-05-26T09:05:39.821Z,26.23
2023-05-26T09:06:38.805Z,26.12
2023-05-26T09:07:39.812Z,25.98
2023-05-26T09:08:39.831Z,25.84
2023-05-26T09:09:38.800Z,25.72
2023-05-26T09:10:38.806Z,25.66
2023-05-26T09:11:41.688Z,25.66
2023-05-26T09:12:38.790Z,25.71
2023-05-26T09:13:38.778Z,25.81
2023-05-26T09:14:39.779Z,25.91
2023-05-26T09:15:38.779Z,25.93
2023-05-26T09:16:39.810Z,25.97
2023-05-26T09:17:39.851Z,26.02
2023-05-26T09:18:39.734Z,26.02
2023-05-26T09:19:38.762Z,26.05
2023-05-26T09:20:38.798Z,26.12
2023-05-26T09:21:39.733Z,26.16
2023-05-26T09:22:38.695Z,26.20
2023-05-26T09:23:38.710Z,26.20
2023-05-26T09:24:38.702Z,26.22
2023-05-26T09:25:38.740Z,26.14
2023-05-26T09:26:39.684Z,26.03
2023-05-26T09:27:39.692Z,25.94
2023-05-26T09:28:38.697Z,25.92
2023-05-26T09:29:38.783Z,25.92
2023-05-26T09:30:39.683Z,25.84
2023-05-26T09:31:39.694Z,25.85
2023-05-26T09:32:38.683Z,25.88
2023-05-26T09:33:39.686Z,25.95
2023-05-26T09:34:38.655Z,25.96
2023-05-26T09:35:38.646Z,25.92
2023-05-26T09:36:39.630Z,26.02
2023-05-26T09:37:39.608Z,26.15
2023-05-26T09:38:39.628Z,26.28
2023-05-26T09:39:39.624Z,26.41
2023-05-26T09:40:39.618Z,26.59
2023-05-26T09:41:39.616Z,26.68
2023-05-26T09:42:39.610Z,26.76
2023-05-26T09:43:39.578Z,26.77
2023-05-26T09:44:39.588Z,26.72
2023-05-26T09:45:39.724Z,26.69
2023-05-26T09:46:38.586Z,26.64
2023-05-26T09:47:38.581Z,26.64
2023-05-26T09:48:39.552Z,26.71
2023-05-26T09:49:39.987Z,26.82
2023-05-26T09:50:39.541Z,26.82
2023-05-26T09:51:39.528Z,26.85
2023-05-26T09:52:39.532Z,26.87
2023-05-26T09:53:39.522Z,26.86
2023-05-26T09:54:39.562Z,26.77
2023-05-26T09:55:39.509Z,26.72
2023-05-26T09:56:38.518Z,26.72
2023-05-26T09:57:38.515Z,26.74
2023-05-26T09:58:39.479Z,26.76
2023-05-26T09:59:38.531Z,26.73
2023-05-26T10:00:39.520Z,26.70
2023-05-26T10:01:38.614Z,26.69
2023-05-26T10:02:39.653Z,26.61
2023-05-26T10:03:39.623Z,26.52
2023-05-26T10:04:39.649Z,26.44
2023-05-26T10:05:39.689Z,26.43
2023-05-26T10:06:39.709Z,26.44
2023-05-26T10:07:39.684Z,26.42
2023-05-26T10:08:39.711Z,26.39
2023-05-26T10:09:39.717Z,26.40
2023-05-26T10:10:39.710Z,26.45
2023-05-26T10:11:39.752Z,26.45
2023-05-26T10:12:39.751Z,26.41
2023-05-26T10:13:38.748Z,26.42
2023-05-26T10:14:39.782Z,26.44
2023-05-26T10:15:39.777Z,26.48
2023-05-26T10:16:39.864Z,26.59
2023-05-26T10:17:39.954Z,26.66
2023-05-26T10:18:39.910Z,26.69
2023-05-26T10:19:39.995Z,26.75
2023-05-26T10:20:40.043Z,26.73
2023-05-26T10:21:40.040Z,26.77
2023-05-26T10:22:40.185Z,26.85
2023-05-26T10:23:40.121Z,26.90
2023-05-26T10:24:40.184Z,26.86
2023-05-26T10:25:39.203Z,26.86
2023-05-26T10:26:39.241Z,26.83
2023-05-26T10:27:40.270Z,26.82
2023-05-26T10:28:40.277Z,26.77
2023-05-26T10:29:40.293Z,26.79
2023-05-26T10:30:40.321Z,26.81
2023-05-26T10:31:40.448Z,26.86
2023-05-26T10:32:40.417Z,26.88
2023-05-26T10:33:40.471Z,26.87
2023-05-26T10:34:41.808Z,26.93
2023-05-26T10:35:40.515Z,26.91
2023-05-26T10:36:40.469Z,26.90
2023-05-26T10:37:40.455Z,26.92
2023-05-26T10:38:39.456Z,26.95
2023-05-26T10:39:40.443Z,26.92
2023-05-26T10:40:40.547Z,26.95
2023-05-26T10:41:40.481Z,27.06
2023-05-26T10:42:40.462Z,27.06
2023-05-26T10:43:39.450Z,27.07
2023-05-26T10:44:39.453Z,27.09
2023-05-26T10:45:40.444Z,27.16
2023-05-26T10:46:40.637Z,27.25
2023-05-26T10:47:39.450Z,27.27
2023-05-26T10:48:39.422Z,27.24
2023-05-26T10:49:39.437Z,27.24
2023-05-26T10:50:39.397Z,27.29
2023-05-26T10:51:39.405Z,27.41
2023-05-26T10:52:39.360Z,27.48
2023-05-26T10:53:40.361Z,27.51
2023-05-26T10:54:40.372Z,27.51
2023-05-26T10:55:39.444Z,27.54
2023-05-26T10:56:39.450Z,27.56
2023-05-26T10:57:40.491Z,27.59
2023-05-26T10:58:40.541Z,27.59
2023-05-26T10:59:39.600Z,27.59
2023-05-26T11:00:39.689Z,27.57
2023-05-26T11:01:40.658Z,27.55
2023-05-26T11:02:39.774Z,27.57
2023-05-26T11:03:40.875Z,27.60
2023-05-26T11:04:40.729Z,27.57
2023-05-26T11:05:40.779Z,27.58
2023-05-26T11:06:40.775Z,27.64
2023-05-26T11:07:40.747Z,27.65
2023-05-26T11:08:40.842Z,27.64
2023-05-26T11:09:40.887Z,27.64
2023-05-26T11:10:40.897Z,27.65
2023-05-26T11:11:40.950Z,27.68
2023-05-26T11:12:40.964Z,27.71
2023-05-26T11:13:41.130Z,27.74
2023-05-26T11:14:41.074Z,27.77
2023-05-26T11:15:40.109Z,27.77
2023-05-26T11:16:41.212Z,27.78
2023-05-26T11:17:41.242Z,27.78
2023-05-26T11:18:41.252Z,27.79
2023-05-26T11:19:40.234Z,27.77
2023-05-26T11:20:41.431Z,27.72
2023-05-26T11:21:41.322Z,27.70
2023-05-26T11:22:41.360Z,27.65
2023-05-26T11:23:41.371Z,27.59
2023-05-26T11:24:40.438Z,27.59
2023-05-26T11:25:41.479Z,27.61
2023-05-26T11:26:40.474Z,27.64
2023-05-26T11:27:41.491Z,27.59
2023-05-26T11:28:41.652Z,27.58
2023-05-26T11:29:40.604Z,27.59
2023-05-26T11:30:41.617Z,27.57
2023-05-26T11:31:42.554Z,27.55
2023-05-26T11:32:41.686Z,27.54
2023-05-26T11:33:40.744Z,27.48
2023-05-26T11:34:41.792Z,27.44
2023-05-26T11:35:41.788Z,27.71
2023-05-26T11:36:40.830Z,27.85
2023-05-26T11:37:41.914Z,27.94
2023-05-26T11:38:41.876Z,28.05
2023-05-26T11:39:41.919Z,28.12
2023-05-26T11:40:41.987Z,28.16
2023-05-26T11:41:42.036Z,28.17
2023-05-26T11:42:42.035Z,28.17
2023-05-26T11:43:42.044Z,28.16
2023-05-26T11:44:42.100Z,28.17
2023-05-26T11:45:41.074Z,28.16
2023-05-26T11:46:42.077Z,28.17
2023-05-26T11:47:42.112Z,28.23
2023-05-26T11:48:41.125Z,28.27
2023-05-26T11:49:42.176Z,28.29
2023-05-26T11:50:41.159Z,28.33
2023-05-26T11:51:42.179Z,28.33
2023-05-26T11:52:41.170Z,28.33
2023-05-26T11:53:42.220Z,28.33
2023-05-26T11:54:42.209Z,28.32
2023-05-26T11:55:42.211Z,28.23
2023-05-26T11:56:42.251Z,28.23
2023-05-26T11:57:42.310Z,28.19
2023-05-26T11:58:42.327Z,28.20
2023-05-26T11:59:42.408Z,28.18
2023-05-26T12:00:42.421Z,28.12
2023-05-26T12:01:41.467Z,28.10
2023-05-26T12:02:41.635Z,28.04
2023-05-26T12:03:41.481Z,28.12
2023-05-26T12:04:41.496Z,28.23
2023-05-26T12:05:42.526Z,28.27
2023-05-26T12:06:42.525Z,28.32
2023-05-26T12:07:42.530Z,28.42
2023-05-26T12:08:42.554Z,28.53
2023-05-26T12:09:42.607Z,28.54
2023-05-26T12:10:42.624Z,28.72
2023-05-26T12:11:42.599Z,28.66
2023-05-26T12:12:41.656Z,28.78
2023-05-26T12:13:42.678Z,28.91
2023-05-26T12:14:42.773Z,29.06
2023-05-26T12:15:42.801Z,29.10
2023-05-26T12:16:42.926Z,29.05
2023-05-26T12:17:41.864Z,28.81
2023-05-26T12:18:42.901Z,28.71
2023-05-26T12:19:41.921Z,28.62
2023-05-26T12:20:44.990Z,28.59
2023-05-26T12:21:42.936Z,28.61
2023-05-26T12:22:41.904Z,28.63
2023-05-26T12:23:42.913Z,28.68
2023-05-26T12:24:42.938Z,28.70
2023-05-26T12:25:42.915Z,28.79
2023-05-26T12:26:42.902Z,28.83
2023-05-26T12:27:41.886Z,28.87
2023-05-26T12:28:42.877Z,28.92
2023-05-26T12:29:42.878Z,28.93
2023-05-26T12:31:42.001Z,28.94
2023-05-26T12:32:41.901Z,28.99
2023-05-26T12:33:42.849Z,29.00
2023-05-26T12:34:41.845Z,29.02
2023-05-26T12:35:42.853Z,29.04
2023-05-26T12:36:44.637Z,29.05
2023-05-26T12:37:42.807Z,29.09
2023-05-26T12:38:42.828Z,29.09
2023-05-26T12:39:42.804Z,29.09
2023-05-26T12:40:41.817Z,29.13
2023-05-26T12:41:42.838Z,29.15
2023-05-26T12:42:42.805Z,29.17
2023-05-26T12:43:42.799Z,29.19
2023-05-26T12:44:42.784Z,29.22
2023-05-26T12:45:42.815Z,29.25
2023-05-26T12:46:42.769Z,29.26
2023-05-26T12:47:42.853Z,29.29
2023-05-26T12:48:42.913Z,29.31
2023-05-26T12:49:41.768Z,29.33
2023-05-26T12:50:41.758Z,29.37
2023-05-26T12:51:42.740Z,29.43
2023-05-26T12:52:42.711Z,29.48
2023-05-26T12:53:41.728Z,29.51